sensor_id;sensor_type;location;lat;lon;timestamp;temperature;humidity
41060;DHT22;26811;53.160;8.202;2022-08-06T00:00:09;13.10;99.90
41060;DHT22;26811;53.160;8.202;2022-08-06T00:05:10;13.10;99.90
41060;DHT22;26811;53.160;8.202;2022-08-06T00:10:11;13.00;99.90
41060;DHT22;26811;53.160;8.202;2022-08-06T00:15:12;13.00;99.90
41060;DHT22;26811;53.160;8.202;2022-08-06T00:20:14;12.90;99.90
41060;DHT22;26811;53.160;8.202;2022-08-06T00:25:15;12.90;99.90
41060;DHT22;26811;53.160;8.202;2022-08-06T00:30:16;12.90;99.90
41060;DHT22;26811;53.160;8.202;2022-08-06T00:35:17;12.90;99.90
41060;DHT22;26811;53.160;8.202;2022-08-06T00:40:18;12.80;99.90
41060;DHT22;26811;53.160;8.202;2022-08-06T00:45:20;12.90;99.90
41060;DHT22;26811;53.160;8.202;2022-08-06T00:50:21;12.80;99.90
41060;DHT22;26811;53.160;8.202;2022-08-06T00:55:21;12.80;99.90
41060;DHT22;26811;53.160;8.202;2022-08-06T01:00:22;12.80;99.90
41060;DHT22;26811;53.160;8.202;2022-08-06T01:05:22;12.80;99.90
41060;DHT22;26811;53.160;8.202;2022-08-06T01:10:23;12.80;99.90
41060;DHT22;26811;53.160;8.202;2022-08-06T01:15:24;12.80;99.90
41060;DHT22;26811;53.160;8.202;2022-08-06T01:31:43;12.70;99.90
41060;DHT22;26811;53.160;8.202;2022-08-06T01:36:54;12.60;99.90
41060;DHT22;26811;53.160;8.202;2022-08-06T01:41:56;12.60;99.90
41060;DHT22;26811;53.160;8.202;2022-08-06T01:47:01;12.50;99.90
41060;DHT22;26811;53.160;8.202;2022-08-06T01:52:02;12.60;99.90
41060;DHT22;26811;53.160;8.202;2022-08-06T01:57:05;12.50;99.90
41060;DHT22;26811;53.160;8.202;2022-08-06T02:02:08;12.50;99.90
41060;DHT22;26811;53.160;8.202;2022-08-06T02:07:14;12.40;99.90
41060;DHT22;26811;53.160;8.202;2022-08-06T02:12:18;12.30;99.90
41060;DHT22;26811;53.160;8.202;2022-08-06T02:17:24;12.30;99.90
41060;DHT22;26811;53.160;8.202;2022-08-06T02:22:28;12.20;99.90
41060;DHT22;26811;53.160;8.202;2022-08-06T02:27:29;12.20;99.90
41060;DHT22;26811;53.160;8.202;2022-08-06T02:32:31;12.10;99.90
41060;DHT22;26811;53.160;8.202;2022-08-06T02:37:46;12.10;99.90
41060;DHT22;26811;53.160;8.202;2022-08-06T02:43:15;12.00;99.90
41060;DHT22;26811;53.160;8.202;2022-08-06T02:48:21;11.90;99.90
41060;DHT22;26811;53.160;8.202;2022-08-06T02:53:28;11.80;99.90
41060;DHT22;26811;53.160;8.202;2022-08-06T02:58:36;11.80;99.90
41060;DHT22;26811;53.160;8.202;2022-08-06T03:03:42;11.70;99.90
41060;DHT22;26811;53.160;8.202;2022-08-06T03:08:45;11.70;99.90
41060;DHT22;26811;53.160;8.202;2022-08-06T03:13:47;11.70;99.90
41060;DHT22;26811;53.160;8.202;2022-08-06T03:18:49;11.60;99.90
41060;DHT22;26811;53.160;8.202;2022-08-06T03:23:50;11.60;99.90
41060;DHT22;26811;53.160;8.202;2022-08-06T03:28:54;11.60;99.90
41060;DHT22;26811;53.160;8.202;2022-08-06T03:33:56;11.50;99.90
41060;DHT22;26811;53.160;8.202;2022-08-06T03:39:02;11.50;99.90
41060;DHT22;26811;53.160;8.202;2022-08-06T03:44:04;11.50;99.90
41060;DHT22;26811;53.160;8.202;2022-08-06T03:49:09;11.50;99.90
41060;DHT22;26811;53.160;8.202;2022-08-06T03:54:11;11.40;99.90
41060;DHT22;26811;53.160;8.202;2022-08-06T03:59:15;11.40;99.90
41060;DHT22;26811;53.160;8.202;2022-08-06T04:04:18;11.30;99.90
41060;DHT22;26811;53.160;8.202;2022-08-06T04:09:21;11.30;99.90
41060;DHT22;26811;53.160;8.202;2022-08-06T04:14:22;11.40;99.90
41060;DHT22;26811;53.160;8.202;2022-08-06T04:19:23;11.40;99.90
41060;DHT22;26811;53.160;8.202;2022-08-06T04:24:25;11.40;99.90
41060;DHT22;26811;53.160;8.202;2022-08-06T04:29:26;11.30;99.90
41060;DHT22;26811;53.160;8.202;2022-08-06T04:34:28;11.30;99.90
41060;DHT22;26811;53.160;8.202;2022-08-06T04:39:30;11.40;99.90
41060;DHT22;26811;53.160;8.202;2022-08-06T04:44:31;11.50;99.90
41060;DHT22;26811;53.160;8.202;2022-08-06T04:49:32;11.60;99.90
41060;DHT22;26811;53.160;8.202;2022-08-06T04:54:33;11.60;99.90
41060;DHT22;26811;53.160;8.202;2022-08-06T04:59:33;11.80;99.90
41060;DHT22;26811;53.160;8.202;2022-08-06T05:04:35;12.00;99.90
41060;DHT22;26811;53.160;8.202;2022-08-06T05:09:36;12.40;99.90
41060;DHT22;26811;53.160;8.202;2022-08-06T05:14:45;12.50;99.90
41060;DHT22;26811;53.160;8.202;2022-08-06T05:20:09;12.40;99.90
41060;DHT22;26811;53.160;8.202;2022-08-06T05:25:11;12.50;99.90
41060;DHT22;26811;53.160;8.202;2022-08-06T05:30:12;12.50;99.90
41060;DHT22;26811;53.160;8.202;2022-08-06T05:35:14;12.70;99.90
41060;DHT22;26811;53.160;8.202;2022-08-06T05:40:14;12.80;99.90
41060;DHT22;26811;53.160;8.202;2022-08-06T05:45:16;13.10;99.90
41060;DHT22;26811;53.160;8.202;2022-08-06T05:50:22;13.50;99.90
41060;DHT22;26811;53.160;8.202;2022-08-06T05:55:40;15.10;99.90
41060;DHT22;26811;53.160;8.202;2022-08-06T06:00:43;17.60;99.90
41060;DHT22;26811;53.160;8.202;2022-08-06T06:05:44;18.60;99.90
41060;DHT22;26811;53.160;8.202;2022-08-06T06:10:45;18.50;99.90
41060;DHT22;26811;53.160;8.202;2022-08-06T06:15:51;17.30;99.90
41060;DHT22;26811;53.160;8.202;2022-08-06T06:26:21;18.60;99.90
41060;DHT22;26811;53.160;8.202;2022-08-06T06:31:33;19.20;99.90
41060;DHT22;26811;53.160;8.202;2022-08-06T06:37:09;20.10;99.90
41060;DHT22;26811;53.160;8.202;2022-08-06T06:42:13;20.90;99.90
41060;DHT22;26811;53.160;8.202;2022-08-06T06:47:31;20.30;99.90
41060;DHT22;26811;53.160;8.202;2022-08-06T06:52:34;21.50;99.90
41060;DHT22;26811;53.160;8.202;2022-08-06T06:57:50;23.50;97.70
41060;DHT22;26811;53.160;8.202;2022-08-06T07:02:52;24.10;96.40
41060;DHT22;26811;53.160;8.202;2022-08-06T07:07:55;24.60;95.30
41060;DHT22;26811;53.160;8.202;2022-08-06T07:12:58;25.70;93.20
41060;DHT22;26811;53.160;8.202;2022-08-06T07:18:01;26.50;92.00
41060;DHT22;26811;53.160;8.202;2022-08-06T07:23:05;27.10;90.80
41060;DHT22;26811;53.160;8.202;2022-08-06T07:28:09;27.60;90.00
41060;DHT22;26811;53.160;8.202;2022-08-06T07:33:10;28.00;90.20
41060;DHT22;26811;53.160;8.202;2022-08-06T07:38:14;28.40;87.10
41060;DHT22;26811;53.160;8.202;2022-08-06T07:48:24;28.80;84.80
41060;DHT22;26811;53.160;8.202;2022-08-06T07:53:26;28.70;85.10
41060;DHT22;26811;53.160;8.202;2022-08-06T07:58:27;28.80;82.50
41060;DHT22;26811;53.160;8.202;2022-08-06T08:03:29;28.20;83.60
41060;DHT22;26811;53.160;8.202;2022-08-06T08:08:55;28.30;82.90
41060;DHT22;26811;53.160;8.202;2022-08-06T08:13:57;28.90;83.40
41060;DHT22;26811;53.160;8.202;2022-08-06T08:18:58;29.10;81.10
41060;DHT22;26811;53.160;8.202;2022-08-06T08:23:59;27.40;81.70
41060;DHT22;26811;53.160;8.202;2022-08-06T08:29:00;26.50;86.40
41060;DHT22;26811;53.160;8.202;2022-08-06T08:34:01;26.70;83.90
41060;DHT22;26811;53.160;8.202;2022-08-06T08:39:03;24.80;87.60
41060;DHT22;26811;53.160;8.202;2022-08-06T08:44:05;23.10;90.50
41060;DHT22;26811;53.160;8.202;2022-08-06T08:49:11;22.10;94.20
41060;DHT22;26811;53.160;8.202;2022-08-06T08:54:16;23.60;92.40
41060;DHT22;26811;53.160;8.202;2022-08-06T08:59:18;23.10;90.70
41060;DHT22;26811;53.160;8.202;2022-08-06T09:04:19;22.90;94.00
41060;DHT22;26811;53.160;8.202;2022-08-06T09:09:20;24.80;91.50
41060;DHT22;26811;53.160;8.202;2022-08-06T09:14:21;25.90;87.90
41060;DHT22;26811;53.160;8.202;2022-08-06T09:19:22;24.60;89.10
41060;DHT22;26811;53.160;8.202;2022-08-06T09:24:23;23.40;91.40
41060;DHT22;26811;53.160;8.202;2022-08-06T09:29:24;24.50;89.60
41060;DHT22;26811;53.160;8.202;2022-08-06T09:34:32;25.60;88.40
41060;DHT22;26811;53.160;8.202;2022-08-06T09:39:42;26.20;89.80
41060;DHT22;26811;53.160;8.202;2022-08-06T09:45:05;26.60;87.60
41060;DHT22;26811;53.160;8.202;2022-08-06T09:50:06;26.20;85.30
41060;DHT22;26811;53.160;8.202;2022-08-06T09:55:07;25.80;86.70
41060;DHT22;26811;53.160;8.202;2022-08-06T10:00:09;25.20;85.40
41060;DHT22;26811;53.160;8.202;2022-08-06T10:05:11;25.10;85.00
41060;DHT22;26811;53.160;8.202;2022-08-06T10:10:13;25.10;88.70
41060;DHT22;26811;53.160;8.202;2022-08-06T10:15:28;24.30;88.50
41060;DHT22;26811;53.160;8.202;2022-08-06T10:20:30;24.50;90.50
41060;DHT22;26811;53.160;8.202;2022-08-06T10:25:31;24.90;90.10
41060;DHT22;26811;53.160;8.202;2022-08-06T10:30:33;25.10;88.30
41060;DHT22;26811;53.160;8.202;2022-08-06T10:35:34;24.90;84.30
41060;DHT22;26811;53.160;8.202;2022-08-06T10:40:37;24.60;87.70
41060;DHT22;26811;53.160;8.202;2022-08-06T10:45:38;24.40;88.90
41060;DHT22;26811;53.160;8.202;2022-08-06T10:50:39;23.70;89.00
41060;DHT22;26811;53.160;8.202;2022-08-06T10:55:40;23.20;90.30
41060;DHT22;26811;53.160;8.202;2022-08-06T11:00:42;22.70;90.00
41060;DHT22;26811;53.160;8.202;2022-08-06T11:05:44;22.70;89.90
41060;DHT22;26811;53.160;8.202;2022-08-06T11:16:01;22.20;90.60
41060;DHT22;26811;53.160;8.202;2022-08-06T11:21:02;22.00;91.20
41060;DHT22;26811;53.160;8.202;2022-08-06T11:26:03;21.60;92.00
41060;DHT22;26811;53.160;8.202;2022-08-06T11:31:05;21.30;92.10
41060;DHT22;26811;53.160;8.202;2022-08-06T11:36:23;21.10;92.70
41060;DHT22;26811;53.160;8.202;2022-08-06T11:41:27;21.10;93.10
41060;DHT22;26811;53.160;8.202;2022-08-06T11:46:36;21.20;93.30
41060;DHT22;26811;53.160;8.202;2022-08-06T11:51:57;21.30;93.20
41060;DHT22;26811;53.160;8.202;2022-08-06T12:02:00;21.90;93.50
41060;DHT22;26811;53.160;8.202;2022-08-06T12:17:26;24.60;87.80
41060;DHT22;26811;53.160;8.202;2022-08-06T12:22:27;24.00;90.10
41060;DHT22;26811;53.160;8.202;2022-08-06T12:27:35;23.00;90.70
41060;DHT22;26811;53.160;8.202;2022-08-06T12:32:36;22.10;91.80
41060;DHT22;26811;53.160;8.202;2022-08-06T12:37:39;21.50;92.70
41060;DHT22;26811;53.160;8.202;2022-08-06T12:42:40;20.90;92.90
41060;DHT22;26811;53.160;8.202;2022-08-06T12:47:40;20.50;94.00
41060;DHT22;26811;53.160;8.202;2022-08-06T12:52:41;20.20;95.00
41060;DHT22;26811;53.160;8.202;2022-08-06T12:57:42;20.10;95.60
41060;DHT22;26811;53.160;8.202;2022-08-06T13:02:43;20.20;95.80
41060;DHT22;26811;53.160;8.202;2022-08-06T13:07:44;20.40;95.40
41060;DHT22;26811;53.160;8.202;2022-08-06T13:12:53;20.60;94.90
41060;DHT22;26811;53.160;8.202;2022-08-06T13:18:15;20.90;94.40
41060;DHT22;26811;53.160;8.202;2022-08-06T13:23:31;21.50;93.70
41060;DHT22;26811;53.160;8.202;2022-08-06T13:28:32;22.10;91.50
41060;DHT22;26811;53.160;8.202;2022-08-06T13:33:33;22.10;91.50
41060;DHT22;26811;53.160;8.202;2022-08-06T13:38:35;21.70;92.30
41060;DHT22;26811;53.160;8.202;2022-08-06T13:43:41;21.40;93.30
41060;DHT22;26811;53.160;8.202;2022-08-06T13:48:50;22.00;92.30
41060;DHT22;26811;53.160;8.202;2022-08-06T13:53:51;22.30;91.70
41060;DHT22;26811;53.160;8.202;2022-08-06T13:58:52;22.00;91.80
41060;DHT22;26811;53.160;8.202;2022-08-06T14:03:52;21.60;91.40
41060;DHT22;26811;53.160;8.202;2022-08-06T14:08:53;21.30;92.40
41060;DHT22;26811;53.160;8.202;2022-08-06T14:13:53;21.60;93.60
41060;DHT22;26811;53.160;8.202;2022-08-06T14:18:54;22.20;92.30
41060;DHT22;26811;53.160;8.202;2022-08-06T14:23:55;22.50;92.90
41060;DHT22;26811;53.160;8.202;2022-08-06T14:28:56;22.70;92.00
41060;DHT22;26811;53.160;8.202;2022-08-06T14:33:56;23.20;91.60
41060;DHT22;26811;53.160;8.202;2022-08-06T14:38:57;23.30;91.40
41060;DHT22;26811;53.160;8.202;2022-08-06T14:43:58;23.40;91.90
41060;DHT22;26811;53.160;8.202;2022-08-06T14:49:17;23.30;91.80
41060;DHT22;26811;53.160;8.202;2022-08-06T14:54:17;22.80;92.00
41060;DHT22;26811;53.160;8.202;2022-08-06T14:59:20;22.50;92.30
41060;DHT22;26811;53.160;8.202;2022-08-06T15:04:21;22.60;91.50
41060;DHT22;26811;53.160;8.202;2022-08-06T15:09:22;23.00;91.10
41060;DHT22;26811;53.160;8.202;2022-08-06T15:14:23;22.90;90.80
41060;DHT22;26811;53.160;8.202;2022-08-06T15:19:25;22.60;90.90
41060;DHT22;26811;53.160;8.202;2022-08-06T15:24:26;22.30;89.90
41060;DHT22;26811;53.160;8.202;2022-08-06T15:29:28;21.90;91.30
41060;DHT22;26811;53.160;8.202;2022-08-06T15:34:28;21.60;92.10
41060;DHT22;26811;53.160;8.202;2022-08-06T15:39:34;21.20;92.70
41060;DHT22;26811;53.160;8.202;2022-08-06T15:44:35;21.00;93.00
41060;DHT22;26811;53.160;8.202;2022-08-06T15:49:37;21.00;93.40
41060;DHT22;26811;53.160;8.202;2022-08-06T15:54:38;21.10;93.30
41060;DHT22;26811;53.160;8.202;2022-08-06T15:59:38;21.10;92.90
41060;DHT22;26811;53.160;8.202;2022-08-06T16:04:39;21.00;93.40
41060;DHT22;26811;53.160;8.202;2022-08-06T16:09:39;21.00;92.80
41060;DHT22;26811;53.160;8.202;2022-08-06T16:14:42;21.00;93.10
41060;DHT22;26811;53.160;8.202;2022-08-06T16:19:42;21.10;93.20
41060;DHT22;26811;53.160;8.202;2022-08-06T16:24:43;21.20;92.10
41060;DHT22;26811;53.160;8.202;2022-08-06T16:29:45;21.30;92.30
41060;DHT22;26811;53.160;8.202;2022-08-06T16:34:46;21.40;93.00
41060;DHT22;26811;53.160;8.202;2022-08-06T16:39:46;21.30;92.20
41060;DHT22;26811;53.160;8.202;2022-08-06T16:44:47;21.20;92.80
41060;DHT22;26811;53.160;8.202;2022-08-06T16:49:47;20.80;93.30
41060;DHT22;26811;53.160;8.202;2022-08-06T16:54:48;20.50;93.60
41060;DHT22;26811;53.160;8.202;2022-08-06T16:59:49;20.20;94.90
41060;DHT22;26811;53.160;8.202;2022-08-06T17:04:49;19.90;95.10
41060;DHT22;26811;53.160;8.202;2022-08-06T17:09:50;19.70;95.60
41060;DHT22;26811;53.160;8.202;2022-08-06T17:14:51;19.50;95.90
41060;DHT22;26811;53.160;8.202;2022-08-06T17:19:52;19.30;96.40
41060;DHT22;26811;53.160;8.202;2022-08-06T17:24:53;19.20;96.70
41060;DHT22;26811;53.160;8.202;2022-08-06T17:29:53;19.10;96.80
41060;DHT22;26811;53.160;8.202;2022-08-06T17:34:54;19.00;97.30
41060;DHT22;26811;53.160;8.202;2022-08-06T17:39:55;18.90;98.30
41060;DHT22;26811;53.160;8.202;2022-08-06T17:44:56;18.80;98.60
41060;DHT22;26811;53.160;8.202;2022-08-06T17:49:57;18.70;98.60
41060;DHT22;26811;53.160;8.202;2022-08-06T17:54:57;18.50;99.40
41060;DHT22;26811;53.160;8.202;2022-08-06T17:59:58;18.50;99.60
41060;DHT22;26811;53.160;8.202;2022-08-06T18:04:58;18.40;99.90
41060;DHT22;26811;53.160;8.202;2022-08-06T18:09:59;18.30;99.90
41060;DHT22;26811;53.160;8.202;2022-08-06T18:15:19;18.20;99.90
41060;DHT22;26811;53.160;8.202;2022-08-06T18:20:21;18.10;99.90
41060;DHT22;26811;53.160;8.202;2022-08-06T18:25:22;17.90;99.90
41060;DHT22;26811;53.160;8.202;2022-08-06T18:30:23;17.80;99.90
41060;DHT22;26811;53.160;8.202;2022-08-06T18:35:24;17.70;99.90
41060;DHT22;26811;53.160;8.202;2022-08-06T18:40:24;17.50;99.90
41060;DHT22;26811;53.160;8.202;2022-08-06T18:45:25;17.40;99.90
41060;DHT22;26811;53.160;8.202;2022-08-06T18:50:25;17.20;99.90
41060;DHT22;26811;53.160;8.202;2022-08-06T18:55:30;17.10;99.90
41060;DHT22;26811;53.160;8.202;2022-08-06T19:00:31;16.90;99.90
41060;DHT22;26811;53.160;8.202;2022-08-06T19:05:33;16.90;99.90
41060;DHT22;26811;53.160;8.202;2022-08-06T19:10:34;16.70;99.90
41060;DHT22;26811;53.160;8.202;2022-08-06T19:15:35;16.60;99.90
41060;DHT22;26811;53.160;8.202;2022-08-06T19:20:35;16.40;99.90
41060;DHT22;26811;53.160;8.202;2022-08-06T19:25:36;16.20;99.90
41060;DHT22;26811;53.160;8.202;2022-08-06T19:30:37;16.00;99.90
41060;DHT22;26811;53.160;8.202;2022-08-06T19:35:39;15.90;99.90
41060;DHT22;26811;53.160;8.202;2022-08-06T19:40:39;15.80;99.90
41060;DHT22;26811;53.160;8.202;2022-08-06T19:45:46;15.70;99.90
41060;DHT22;26811;53.160;8.202;2022-08-06T19:55:51;15.40;99.90
41060;DHT22;26811;53.160;8.202;2022-08-06T20:00:51;15.40;99.90
41060;DHT22;26811;53.160;8.202;2022-08-06T20:05:52;15.30;99.90
41060;DHT22;26811;53.160;8.202;2022-08-06T20:10:53;15.20;99.90
41060;DHT22;26811;53.160;8.202;2022-08-06T20:15:55;15.10;99.90
41060;DHT22;26811;53.160;8.202;2022-08-06T20:20:57;15.10;99.90
41060;DHT22;26811;53.160;8.202;2022-08-06T20:25:58;15.00;99.90
41060;DHT22;26811;53.160;8.202;2022-08-06T20:30:59;14.90;99.90
41060;DHT22;26811;53.160;8.202;2022-08-06T20:35:59;14.80;99.90
41060;DHT22;26811;53.160;8.202;2022-08-06T20:41:00;14.70;99.90
41060;DHT22;26811;53.160;8.202;2022-08-06T20:46:02;14.60;99.90
41060;DHT22;26811;53.160;8.202;2022-08-06T20:51:04;14.50;99.90
41060;DHT22;26811;53.160;8.202;2022-08-06T20:56:05;14.50;99.90
41060;DHT22;26811;53.160;8.202;2022-08-06T21:01:07;14.40;99.90
41060;DHT22;26811;53.160;8.202;2022-08-06T21:06:07;14.30;99.90
41060;DHT22;26811;53.160;8.202;2022-08-06T21:11:09;14.30;99.90
41060;DHT22;26811;53.160;8.202;2022-08-06T21:16:10;14.20;99.90
41060;DHT22;26811;53.160;8.202;2022-08-06T21:21:11;14.10;99.90
41060;DHT22;26811;53.160;8.202;2022-08-06T21:26:13;14.10;99.90
41060;DHT22;26811;53.160;8.202;2022-08-06T21:31:13;14.00;99.90
41060;DHT22;26811;53.160;8.202;2022-08-06T21:36:14;14.00;99.90
41060;DHT22;26811;53.160;8.202;2022-08-06T21:41:14;13.80;99.90
41060;DHT22;26811;53.160;8.202;2022-08-06T21:46:28;13.80;99.90
41060;DHT22;26811;53.160;8.202;2022-08-06T21:51:29;13.70;99.90
41060;DHT22;26811;53.160;8.202;2022-08-06T21:56:30;13.60;99.90
41060;DHT22;26811;53.160;8.202;2022-08-06T22:01:31;13.60;99.90
41060;DHT22;26811;53.160;8.202;2022-08-06T22:06:31;13.50;99.90
41060;DHT22;26811;53.160;8.202;2022-08-06T22:11:32;13.50;99.90
41060;DHT22;26811;53.160;8.202;2022-08-06T22:16:32;13.40;99.90
41060;DHT22;26811;53.160;8.202;2022-08-06T22:21:33;13.30;99.90
41060;DHT22;26811;53.160;8.202;2022-08-06T22:26:33;13.30;99.90
41060;DHT22;26811;53.160;8.202;2022-08-06T22:31:34;13.30;99.90
41060;DHT22;26811;53.160;8.202;2022-08-06T22:36:36;13.20;99.90
41060;DHT22;26811;53.160;8.202;2022-08-06T22:41:37;13.20;99.90
41060;DHT22;26811;53.160;8.202;2022-08-06T22:46:37;13.10;99.90
41060;DHT22;26811;53.160;8.202;2022-08-06T22:51:37;13.10;99.90
41060;DHT22;26811;53.160;8.202;2022-08-06T22:56:38;13.10;99.90
41060;DHT22;26811;53.160;8.202;2022-08-06T23:01:38;13.00;99.90
41060;DHT22;26811;53.160;8.202;2022-08-06T23:06:39;13.00;99.90
41060;DHT22;26811;53.160;8.202;2022-08-06T23:11:40;12.90;99.90
41060;DHT22;26811;53.160;8.202;2022-08-06T23:16:40;12.90;99.90
41060;DHT22;26811;53.160;8.202;2022-08-06T23:21:41;12.80;99.90
41060;DHT22;26811;53.160;8.202;2022-08-06T23:26:41;12.80;99.90
41060;DHT22;26811;53.160;8.202;2022-08-06T23:31:42;12.70;99.90
41060;DHT22;26811;53.160;8.202;2022-08-06T23:36:43;12.70;99.90
41060;DHT22;26811;53.160;8.202;2022-08-06T23:41:44;12.60;99.90
41060;DHT22;26811;53.160;8.202;2022-08-06T23:46:45;12.60;99.90
41060;DHT22;26811;53.160;8.202;2022-08-06T23:51:46;12.50;99.90
41060;DHT22;26811;53.160;8.202;2022-08-06T23:56:50;12.50;99.90
